createdAt,value
2017-12-12T00:01:34.625Z,2.70
2017-12-12T00:04:02.137Z,2.70
2017-12-12T00:06:30.513Z,2.60
2017-12-12T00:08:58.741Z,2.70
2017-12-12T00:11:26.730Z,2.60
2017-12-12T00:13:54.273Z,2.60
2017-12-12T00:16:21.817Z,2.60
2017-12-12T00:18:49.473Z,2.60
2017-12-12T00:21:16.938Z,2.70
2017-12-12T00:23:44.603Z,2.70
2017-12-12T00:26:12.145Z,2.70
2017-12-12T00:28:39.604Z,2.70
2017-12-12T00:31:07.076Z,2.80
2017-12-12T00:33:34.549Z,2.80
2017-12-12T00:36:02.011Z,2.80
2017-12-12T00:38:29.479Z,2.70
2017-12-12T00:40:56.952Z,2.70
2017-12-12T00:43:24.430Z,2.60
2017-12-12T00:45:51.911Z,2.50
2017-12-12T00:48:19.381Z,2.50
2017-12-12T00:50:46.862Z,2.40
2017-12-12T00:53:14.329Z,2.40
2017-12-12T00:55:43.404Z,2.30
2017-12-12T00:58:10.884Z,2.40
2017-12-12T01:00:38.473Z,2.40
2017-12-12T01:03:05.964Z,2.40
2017-12-12T01:05:33.448Z,2.50
2017-12-12T01:08:00.901Z,2.50
2017-12-12T01:10:28.386Z,2.40
2017-12-12T01:12:56.647Z,2.50
2017-12-12T01:15:24.122Z,2.50
2017-12-12T01:17:52.366Z,2.50
2017-12-12T01:20:19.842Z,2.50
2017-12-12T01:22:47.394Z,2.40
2017-12-12T01:25:14.858Z,2.50
2017-12-12T01:27:42.325Z,2.50
2017-12-12T01:30:10.581Z,2.50
2017-12-12T01:32:38.146Z,2.50
2017-12-12T01:35:05.756Z,2.50
2017-12-12T01:37:33.395Z,2.50
2017-12-12T01:40:00.849Z,2.50
2017-12-12T01:42:28.395Z,2.50
2017-12-12T01:44:56.641Z,2.50
2017-12-12T01:47:24.124Z,2.50
2017-12-12T01:49:52.369Z,2.50
2017-12-12T01:52:19.838Z,2.50
2017-12-12T01:54:48.814Z,2.50
2017-12-12T01:57:16.273Z,2.50
2017-12-12T01:59:43.770Z,2.50
2017-12-12T02:02:12.001Z,2.60
2017-12-12T02:04:39.466Z,2.60
2017-12-12T02:07:06.937Z,2.60
2017-12-12T02:09:34.422Z,2.50
2017-12-12T02:12:01.886Z,2.60
2017-12-12T02:14:29.361Z,2.60
2017-12-12T02:16:56.826Z,2.60
2017-12-12T02:19:24.334Z,2.60
2017-12-12T02:21:52.574Z,2.70
2017-12-12T02:24:20.043Z,2.70
2017-12-12T02:26:47.505Z,2.70
2017-12-12T02:29:14.972Z,2.60
2017-12-12T02:31:43.216Z,2.60
2017-12-12T02:34:11.680Z,2.60
2017-12-12T02:36:39.149Z,2.60
2017-12-12T02:39:06.623Z,2.60
2017-12-12T02:41:35.601Z,2.60
2017-12-12T02:44:03.073Z,2.60
2017-12-12T02:46:30.624Z,2.70
2017-12-12T02:48:58.154Z,2.70
2017-12-12T02:51:25.634Z,2.70
2017-12-12T02:53:53.108Z,2.70
2017-12-12T02:56:20.582Z,2.70
2017-12-12T02:58:48.823Z,2.70
2017-12-12T03:01:16.278Z,2.60
2017-12-12T03:03:43.819Z,2.70
2017-12-12T03:06:11.267Z,2.80
2017-12-12T03:08:38.734Z,2.70
2017-12-12T03:11:06.400Z,2.80
2017-12-12T03:13:33.883Z,2.80
2017-12-12T03:16:01.763Z,2.80
2017-12-12T03:18:30.018Z,2.90
2017-12-12T03:20:57.493Z,2.80
2017-12-12T03:23:24.976Z,2.90
2017-12-12T03:25:52.450Z,2.90
2017-12-12T03:28:19.913Z,2.90
2017-12-12T03:30:47.370Z,2.90
2017-12-12T03:33:15.009Z,2.90
2017-12-12T03:35:42.621Z,2.90
2017-12-12T03:38:10.119Z,2.90
2017-12-12T03:40:38.358Z,2.80
2017-12-12T03:43:05.948Z,2.80
2017-12-12T03:45:34.182Z,2.80
2017-12-12T03:48:01.661Z,2.70
2017-12-12T03:50:29.138Z,2.80
2017-12-12T03:52:57.368Z,2.80
2017-12-12T03:55:24.824Z,2.80
2017-12-12T03:57:52.299Z,2.80
2017-12-12T04:00:19.766Z,2.80
2017-12-12T04:02:47.245Z,2.70
2017-12-12T04:05:14.703Z,2.80
2017-12-12T04:07:42.973Z,2.70
2017-12-12T04:10:11.220Z,2.80
2017-12-12T04:12:38.695Z,2.80
2017-12-12T04:15:06.917Z,2.80
2017-12-12T04:17:34.393Z,2.80
2017-12-12T04:20:01.852Z,2.80
2017-12-12T04:22:29.316Z,2.80
2017-12-12T04:24:56.792Z,2.80
2017-12-12T04:27:24.256Z,2.80
2017-12-12T04:29:52.498Z,2.70
2017-12-12T04:32:19.968Z,2.80
2017-12-12T04:34:47.484Z,2.80
2017-12-12T04:37:14.941Z,2.80
2017-12-12T04:39:42.927Z,2.80
2017-12-12T04:42:10.377Z,2.70
2017-12-12T04:44:37.961Z,2.70
2017-12-12T04:47:05.425Z,2.70
2017-12-12T04:49:32.894Z,2.70
2017-12-12T04:52:00.541Z,2.70
2017-12-12T04:54:28.025Z,2.70
2017-12-12T04:56:56.261Z,2.60
2017-12-12T04:59:23.713Z,2.60
2017-12-12T05:01:51.177Z,2.70
2017-12-12T05:04:18.662Z,2.60
2017-12-12T05:06:46.901Z,2.60
2017-12-12T05:09:14.366Z,2.60
2017-12-12T05:11:41.836Z,2.50
2017-12-12T05:14:10.073Z,2.60
2017-12-12T05:16:37.549Z,2.50
2017-12-12T05:19:05.031Z,2.50
2017-12-12T05:21:32.487Z,2.60
2017-12-12T05:23:59.957Z,2.60
2017-12-12T05:26:28.177Z,2.50
2017-12-12T05:28:55.645Z,2.50
2017-12-12T05:31:23.152Z,2.50
2017-12-12T05:33:51.377Z,2.60
2017-12-12T05:36:18.837Z,2.60
2017-12-12T05:38:46.305Z,2.60
2017-12-12T05:41:13.769Z,2.60
2017-12-12T05:43:41.269Z,2.70
2017-12-12T05:46:08.709Z,2.70
2017-12-12T05:48:36.965Z,2.70
2017-12-12T05:51:05.056Z,2.70
2017-12-12T05:53:33.302Z,2.60
2017-12-12T05:56:00.769Z,2.60
2017-12-12T05:58:28.972Z,2.70
2017-12-12T06:00:56.438Z,2.70
2017-12-12T06:03:23.896Z,2.80
2017-12-12T06:05:51.382Z,2.70
2017-12-12T06:08:19.026Z,2.80
2017-12-12T06:10:46.545Z,2.80
2017-12-12T06:13:14.786Z,2.80
2017-12-12T06:15:42.262Z,2.80
2017-12-12T06:18:09.720Z,2.80
2017-12-12T06:20:37.184Z,2.80
2017-12-12T06:23:05.481Z,2.80
2017-12-12T06:25:32.984Z,2.80
2017-12-12T06:28:00.470Z,2.80
2017-12-12T06:30:27.939Z,2.80
2017-12-12T06:32:56.173Z,2.80
2017-12-12T06:35:23.635Z,2.80
2017-12-12T06:37:51.150Z,2.80
2017-12-12T06:40:18.694Z,2.80
2017-12-12T06:42:47.150Z,2.80
2017-12-12T06:45:14.798Z,2.80
2017-12-12T06:47:42.293Z,2.80
2017-12-12T06:50:10.653Z,2.90
2017-12-12T06:52:38.884Z,2.90
2017-12-12T06:55:06.376Z,2.90
2017-12-12T06:57:33.826Z,2.80
2017-12-12T07:00:01.297Z,2.80
2017-12-12T07:02:28.773Z,2.90
2017-12-12T07:04:57.013Z,2.90
2017-12-12T07:07:24.469Z,2.90
2017-12-12T07:09:51.941Z,2.90
2017-12-12T07:12:19.400Z,2.90
2017-12-12T07:14:47.650Z,3.00
2017-12-12T07:17:15.106Z,3.00
2017-12-12T07:19:42.763Z,2.90
2017-12-12T07:22:10.221Z,3.00
2017-12-12T07:24:38.313Z,3.00
2017-12-12T07:27:05.786Z,3.00
2017-12-12T07:29:34.017Z,3.00
2017-12-12T07:32:01.546Z,3.00
2017-12-12T07:34:29.021Z,3.00
2017-12-12T07:36:56.500Z,2.90
2017-12-12T07:39:23.953Z,3.00
2017-12-12T07:41:51.424Z,3.00
2017-12-12T07:44:18.885Z,2.90
2017-12-12T07:46:46.370Z,3.00
2017-12-12T07:49:14.616Z,3.00
2017-12-12T07:51:42.093Z,3.00
2017-12-12T07:54:10.314Z,3.00
2017-12-12T07:56:37.794Z,3.00
2017-12-12T07:59:05.262Z,3.00
2017-12-12T08:01:32.828Z,3.00
2017-12-12T08:04:00.306Z,3.00
2017-12-12T08:06:28.572Z,3.00
2017-12-12T08:08:56.815Z,3.00
2017-12-12T08:11:24.355Z,3.00
2017-12-12T08:13:51.890Z,3.00
2017-12-12T08:16:19.393Z,3.10
2017-12-12T08:18:46.861Z,3.10
2017-12-12T08:21:14.322Z,3.10
2017-12-12T08:23:41.866Z,3.10
2017-12-12T08:26:09.441Z,3.10
2017-12-12T08:28:36.951Z,3.10
2017-12-12T08:31:04.408Z,3.20
2017-12-12T08:33:31.872Z,3.20
2017-12-12T08:35:59.361Z,3.20
2017-12-12T08:38:27.758Z,3.20
2017-12-12T08:40:56.011Z,3.20
2017-12-12T08:43:23.590Z,3.20
2017-12-12T08:45:51.053Z,3.20
2017-12-12T08:48:19.290Z,3.20
2017-12-12T08:50:46.791Z,3.20
2017-12-12T08:53:15.021Z,3.30
2017-12-12T08:55:42.497Z,3.30
2017-12-12T08:58:11.478Z,3.20
2017-12-12T09:00:38.953Z,3.20
2017-12-12T09:03:07.315Z,3.20
2017-12-12T09:05:34.847Z,3.10
2017-12-12T09:08:02.326Z,3.20
2017-12-12T09:10:29.791Z,3.30
2017-12-12T09:12:57.261Z,3.40
2017-12-12T09:15:25.494Z,3.30
2017-12-12T09:17:52.966Z,3.30
2017-12-12T09:20:20.417Z,3.30
2017-12-12T09:22:48.501Z,3.30
2017-12-12T09:25:15.981Z,3.20
2017-12-12T09:27:44.218Z,3.20
2017-12-12T09:30:12.445Z,3.20
2017-12-12T09:32:40.681Z,3.20
2017-12-12T09:35:08.155Z,3.20
2017-12-12T09:37:35.765Z,3.30
2017-12-12T09:40:03.323Z,3.30
2017-12-12T09:42:30.809Z,3.30
2017-12-12T09:44:58.292Z,3.10
2017-12-12T09:47:25.917Z,2.90
2017-12-12T09:49:53.392Z,2.70
2017-12-12T09:52:20.859Z,2.70
2017-12-12T09:54:48.336Z,2.70
2017-12-12T09:57:16.582Z,2.90
2017-12-12T09:59:44.057Z,2.90
2017-12-12T10:02:12.305Z,3.00
2017-12-12T10:04:39.770Z,3.00
2017-12-12T10:07:07.237Z,3.10
2017-12-12T10:09:34.702Z,3.10
2017-12-12T10:12:02.945Z,3.20
2017-12-12T10:14:30.413Z,3.10
2017-12-12T10:16:57.888Z,3.20
2017-12-12T10:19:26.112Z,3.30
2017-12-12T10:21:53.588Z,3.20
2017-12-12T10:24:21.072Z,3.30
2017-12-12T10:26:48.587Z,3.30
2017-12-12T10:29:16.184Z,3.30
2017-12-12T10:31:44.417Z,3.30
2017-12-12T10:34:11.888Z,3.30
2017-12-12T10:36:39.366Z,3.40
2017-12-12T10:39:06.837Z,3.30
2017-12-12T10:41:34.369Z,3.30
2017-12-12T10:44:01.809Z,3.30
2017-12-12T10:46:29.301Z,3.40
2017-12-12T10:48:56.765Z,3.40
2017-12-12T10:51:24.237Z,3.40
2017-12-12T10:53:52.478Z,3.50
2017-12-12T10:56:19.963Z,3.50
2017-12-12T10:58:47.418Z,3.50
2017-12-12T11:01:15.732Z,3.60
2017-12-12T11:03:43.203Z,3.60
2017-12-12T11:06:10.795Z,3.50
2017-12-12T11:08:38.265Z,3.50
2017-12-12T11:11:06.497Z,3.50
2017-12-12T11:13:33.966Z,3.40
2017-12-12T11:16:01.440Z,3.40
2017-12-12T11:18:28.901Z,3.40
2017-12-12T11:20:56.380Z,3.40
2017-12-12T11:23:24.689Z,3.40
2017-12-12T11:25:53.133Z,3.40
2017-12-12T11:28:21.363Z,3.50
2017-12-12T11:30:49.591Z,3.50
2017-12-12T11:33:17.843Z,3.60
2017-12-12T11:35:45.298Z,3.50
2017-12-12T11:38:13.532Z,3.60
2017-12-12T11:40:40.993Z,3.60
2017-12-12T11:43:08.454Z,3.60
2017-12-12T11:45:35.922Z,3.70
2017-12-12T11:48:03.400Z,3.70
2017-12-12T11:50:31.629Z,3.70
2017-12-12T11:52:59.085Z,3.70
2017-12-12T11:55:26.558Z,3.70
2017-12-12T11:57:54.025Z,3.80
2017-12-12T12:00:21.491Z,3.80
2017-12-12T12:02:48.949Z,3.70
2017-12-12T12:05:16.419Z,3.60
2017-12-12T12:07:43.933Z,3.70
2017-12-12T12:10:11.413Z,3.60
2017-12-12T12:12:38.891Z,3.70
2017-12-12T12:15:06.388Z,3.80
2017-12-12T12:17:33.849Z,3.70
2017-12-12T12:20:01.467Z,3.70
2017-12-12T12:22:29.019Z,3.70
2017-12-12T12:24:56.482Z,3.70
2017-12-12T12:27:23.949Z,3.80
2017-12-12T12:29:52.189Z,3.90
2017-12-12T12:32:19.672Z,3.90
2017-12-12T12:34:47.125Z,3.90
2017-12-12T12:37:15.364Z,3.90
2017-12-12T12:39:42.809Z,3.90
2017-12-12T12:42:10.282Z,4.00
2017-12-12T12:44:37.738Z,4.00
2017-12-12T12:47:05.332Z,4.00
2017-12-12T12:49:33.555Z,4.10
2017-12-12T12:52:01.055Z,4.10
2017-12-12T12:54:28.509Z,4.10
2017-12-12T12:56:55.997Z,4.10
2017-12-12T12:59:24.302Z,4.10
2017-12-12T13:01:51.757Z,4.10
2017-12-12T13:04:19.228Z,4.10
2017-12-12T13:06:46.677Z,4.20
2017-12-12T13:09:14.150Z,4.10
2017-12-12T13:11:41.741Z,4.10
2017-12-12T13:14:09.281Z,4.00
2017-12-12T13:16:36.740Z,4.00
2017-12-12T13:19:04.201Z,4.00
2017-12-12T13:21:31.666Z,4.00
2017-12-12T13:23:59.125Z,4.10
2017-12-12T13:26:26.590Z,4.10
2017-12-12T13:28:54.814Z,4.10
2017-12-12T13:31:22.287Z,4.10
2017-12-12T13:33:49.748Z,4.20
2017-12-12T13:36:17.247Z,4.20
2017-12-12T13:38:45.485Z,4.30
2017-12-12T13:41:12.969Z,4.30
2017-12-12T13:43:41.225Z,4.40
2017-12-12T13:46:08.694Z,4.30
2017-12-12T13:48:36.161Z,4.40
2017-12-12T13:51:04.411Z,4.40
2017-12-12T13:53:31.874Z,4.40
2017-12-12T13:55:59.335Z,4.40
2017-12-12T13:58:27.578Z,4.40
2017-12-12T14:00:55.041Z,4.40
2017-12-12T14:03:22.517Z,4.40
2017-12-12T14:05:50.034Z,4.30
2017-12-12T14:08:17.513Z,4.20
2017-12-12T14:10:44.987Z,4.10
2017-12-12T14:13:12.453Z,4.10
2017-12-12T14:15:40.711Z,4.10
2017-12-12T14:18:08.160Z,4.10
2017-12-12T14:20:35.632Z,4.00
2017-12-12T14:23:03.293Z,4.00
2017-12-12T14:25:32.271Z,3.90
2017-12-12T14:27:59.725Z,3.90
2017-12-12T14:30:27.193Z,3.90
2017-12-12T14:32:54.662Z,3.90
2017-12-12T14:35:22.161Z,3.90
2017-12-12T14:37:50.508Z,3.90
2017-12-12T14:40:18.748Z,3.80
2017-12-12T14:42:46.225Z,3.80
2017-12-12T14:45:13.680Z,3.80
2017-12-12T14:47:41.155Z,3.80
2017-12-12T14:50:09.376Z,3.80
2017-12-12T14:52:36.844Z,3.80
2017-12-12T14:55:04.314Z,3.70
2017-12-12T14:57:31.780Z,3.80
2017-12-12T14:59:59.241Z,3.80
2017-12-12T15:02:26.737Z,3.80
2017-12-12T15:04:54.292Z,3.70
2017-12-12T15:07:22.364Z,3.70
2017-12-12T15:09:49.853Z,3.70
2017-12-12T15:12:17.332Z,3.70
2017-12-12T15:14:44.799Z,3.80
2017-12-12T15:17:12.381Z,3.70
2017-12-12T15:19:40.795Z,3.70
2017-12-12T15:22:08.265Z,3.70
2017-12-12T15:24:35.749Z,3.70
2017-12-12T15:27:04.894Z,3.70
2017-12-12T15:29:32.396Z,3.70
2017-12-12T15:31:59.870Z,3.70
2017-12-12T15:34:27.385Z,3.70
2017-12-12T15:36:54.894Z,3.70
2017-12-12T15:39:23.125Z,3.70
2017-12-12T15:41:50.606Z,3.70
2017-12-12T15:44:18.081Z,3.70
2017-12-12T15:46:46.318Z,3.70
2017-12-12T15:49:13.789Z,3.70
2017-12-12T15:51:42.160Z,3.70
2017-12-12T15:54:09.643Z,3.70
2017-12-12T15:56:37.891Z,3.60
2017-12-12T15:59:05.365Z,3.60
2017-12-12T16:01:32.858Z,3.60
2017-12-12T16:04:00.341Z,3.70
2017-12-12T16:06:27.846Z,3.70
2017-12-12T16:08:55.310Z,3.70
2017-12-12T16:11:23.533Z,3.70
2017-12-12T16:13:51.026Z,3.70
2017-12-12T16:16:18.572Z,3.80
2017-12-12T16:18:46.044Z,3.70
2017-12-12T16:21:14.289Z,3.80
2017-12-12T16:23:41.749Z,3.70
2017-12-12T16:26:09.223Z,3.80
2017-12-12T16:28:36.697Z,3.80
2017-12-12T16:31:04.943Z,3.70
2017-12-12T16:33:32.504Z,3.70
2017-12-12T16:36:00.051Z,3.60
2017-12-12T16:38:27.592Z,3.60
2017-12-12T16:40:55.205Z,3.60
2017-12-12T16:43:22.850Z,3.60
2017-12-12T16:45:50.363Z,3.60
2017-12-12T16:48:17.869Z,3.60
2017-12-12T16:50:45.326Z,3.60
2017-12-12T16:53:12.813Z,3.60
2017-12-12T16:55:41.046Z,3.70
2017-12-12T16:58:08.520Z,3.70
2017-12-12T17:00:36.022Z,3.70
2017-12-12T17:03:03.505Z,3.60
2017-12-12T17:05:30.989Z,3.50
2017-12-12T17:07:58.475Z,3.50
2017-12-12T17:10:26.704Z,3.50
2017-12-12T17:12:54.189Z,3.50
2017-12-12T17:15:22.554Z,3.50
2017-12-12T17:17:50.116Z,3.50
2017-12-12T17:20:17.573Z,3.40
2017-12-12T17:22:45.781Z,3.40
2017-12-12T17:25:13.332Z,3.40
2017-12-12T17:27:41.577Z,3.40
2017-12-12T17:30:09.053Z,3.40
2017-12-12T17:32:37.302Z,3.50
2017-12-12T17:35:04.766Z,3.50
2017-12-12T17:37:32.260Z,3.50
2017-12-12T17:40:00.489Z,3.50
2017-12-12T17:42:28.075Z,3.50
2017-12-12T17:44:56.471Z,3.50
2017-12-12T17:47:24.716Z,3.40
2017-12-12T17:49:52.353Z,3.40
2017-12-12T17:52:20.069Z,3.40
2017-12-12T17:54:47.537Z,3.40
2017-12-12T17:57:15.925Z,3.50
2017-12-12T17:59:43.401Z,3.50
2017-12-12T18:02:10.889Z,3.50
2017-12-12T18:04:38.341Z,3.50
2017-12-12T18:07:05.818Z,3.50
2017-12-12T18:09:34.057Z,3.40
2017-12-12T18:12:01.537Z,3.50
2017-12-12T18:14:29.010Z,3.50
2017-12-12T18:16:57.271Z,3.50
2017-12-12T18:19:24.733Z,3.50
2017-12-12T18:21:52.965Z,3.50
2017-12-12T18:24:20.449Z,3.50
2017-12-12T18:26:47.922Z,3.50
2017-12-12T18:29:16.160Z,3.50
2017-12-12T18:31:43.635Z,3.50
2017-12-12T18:34:11.111Z,3.50
2017-12-12T18:36:39.375Z,3.50
2017-12-12T18:39:06.853Z,3.50
2017-12-12T18:41:35.112Z,3.50
2017-12-12T18:44:02.595Z,3.50
2017-12-12T18:46:30.057Z,3.50
2017-12-12T18:48:57.526Z,3.60
2017-12-12T18:51:25.839Z,3.50
2017-12-12T18:53:53.377Z,3.60
2017-12-12T18:56:20.913Z,3.50
2017-12-12T18:58:48.466Z,3.50
2017-12-12T19:01:16.048Z,3.60
2017-12-12T19:03:43.902Z,3.60
2017-12-12T19:06:11.647Z,3.60
2017-12-12T19:08:40.253Z,3.50
2017-12-12T19:11:08.169Z,3.50
2017-12-12T19:13:36.086Z,3.50
2017-12-12T19:16:04.162Z,3.50
2017-12-12T19:18:32.020Z,3.60
2017-12-12T19:20:59.889Z,3.60
2017-12-12T19:23:27.690Z,3.60
2017-12-12T19:25:56.706Z,3.50
2017-12-12T19:28:24.332Z,3.50
2017-12-12T19:30:51.921Z,3.50
2017-12-12T19:33:20.320Z,3.50
2017-12-12T19:35:47.910Z,3.50
2017-12-12T19:38:15.457Z,3.50
2017-12-12T19:40:42.939Z,3.50
2017-12-12T19:43:10.449Z,3.50
2017-12-12T19:45:37.943Z,3.60
2017-12-12T19:48:05.522Z,3.60
2017-12-12T19:50:33.011Z,3.60
2017-12-12T19:53:01.274Z,3.60
2017-12-12T19:55:28.758Z,3.60
2017-12-12T19:57:57.480Z,3.60
2017-12-12T20:00:24.952Z,3.60
2017-12-12T20:02:52.437Z,3.60
2017-12-12T20:05:19.894Z,3.60
2017-12-12T20:07:49.577Z,3.60
2017-12-12T20:10:17.054Z,3.60
2017-12-12T20:12:44.673Z,3.60
2017-12-12T20:15:12.264Z,3.60
2017-12-12T20:17:39.778Z,3.60
2017-12-12T20:20:07.395Z,3.60
2017-12-12T20:22:35.626Z,3.60
2017-12-12T20:25:03.109Z,3.60
2017-12-12T20:27:30.580Z,3.60
2017-12-12T20:29:58.052Z,3.60
2017-12-12T20:32:26.283Z,3.60
2017-12-12T20:34:53.857Z,3.60
2017-12-12T20:37:21.538Z,3.60
2017-12-12T20:39:49.057Z,3.70
2017-12-12T20:42:16.550Z,3.70
2017-12-12T20:44:44.046Z,3.70
2017-12-12T20:47:11.513Z,3.70
2017-12-12T20:49:39.106Z,3.70
2017-12-12T20:52:06.584Z,3.70
2017-12-12T20:54:34.164Z,3.80
2017-12-12T20:57:02.498Z,3.80
2017-12-12T20:59:30.109Z,3.80
2017-12-12T21:01:57.726Z,3.80
2017-12-12T21:04:25.306Z,3.80
2017-12-12T21:06:53.618Z,3.80
2017-12-12T21:09:21.272Z,3.70
2017-12-12T21:11:48.818Z,3.70
2017-12-12T21:14:17.162Z,3.70
2017-12-12T21:16:44.691Z,3.70
2017-12-12T21:19:12.196Z,3.60
2017-12-12T21:21:40.441Z,3.60
2017-12-12T21:24:07.921Z,3.60
2017-12-12T21:26:35.423Z,3.50
2017-12-12T21:29:02.889Z,3.50
2017-12-12T21:31:30.454Z,3.50
2017-12-12T21:33:58.033Z,3.50
2017-12-12T21:36:25.511Z,3.40
2017-12-12T21:38:52.986Z,3.40
2017-12-12T21:41:21.227Z,3.50
2017-12-12T21:43:48.701Z,3.50
2017-12-12T21:46:16.179Z,3.50
2017-12-12T21:48:44.421Z,3.60
2017-12-12T21:51:11.979Z,3.60
2017-12-12T21:53:39.457Z,3.60
2017-12-12T21:56:06.931Z,3.70
2017-12-12T21:58:35.223Z,3.70
2017-12-12T22:01:02.716Z,3.70
2017-12-12T22:03:30.184Z,3.80
2017-12-12T22:05:57.737Z,3.80
2017-12-12T22:08:25.205Z,3.80
2017-12-12T22:10:52.697Z,3.80
2017-12-12T22:13:20.151Z,3.80
2017-12-12T22:15:48.397Z,3.80
2017-12-12T22:18:15.875Z,3.70
2017-12-12T22:20:44.116Z,3.70
2017-12-12T22:23:11.794Z,3.70
2017-12-12T22:25:39.306Z,3.70
2017-12-12T22:28:06.830Z,3.70
2017-12-12T22:30:35.072Z,3.70
2017-12-12T22:33:02.562Z,3.70
2017-12-12T22:35:30.803Z,3.70
2017-12-12T22:37:58.277Z,3.70
2017-12-12T22:40:25.789Z,3.70
2017-12-12T22:42:53.257Z,3.60
2017-12-12T22:45:20.732Z,3.60
2017-12-12T22:47:48.217Z,3.50
2017-12-12T22:50:16.466Z,3.40
2017-12-12T22:52:43.940Z,3.40
2017-12-12T22:55:12.207Z,3.30
2017-12-12T22:57:39.695Z,3.30
2017-12-12T23:00:07.153Z,3.30
2017-12-12T23:02:34.632Z,3.30
2017-12-12T23:05:02.105Z,3.20
2017-12-12T23:07:29.580Z,3.20
2017-12-12T23:09:57.068Z,3.20
2017-12-12T23:12:25.306Z,3.10
2017-12-12T23:14:52.785Z,3.10
2017-12-12T23:17:20.269Z,3.10
2017-12-12T23:19:47.890Z,3.00
2017-12-12T23:22:15.454Z,3.00
2017-12-12T23:24:44.548Z,2.90
2017-12-12T23:27:12.082Z,2.90
2017-12-12T23:29:39.689Z,3.00
2017-12-12T23:32:07.929Z,3.00
2017-12-12T23:34:35.484Z,3.00
2017-12-12T23:37:02.962Z,2.90
2017-12-12T23:39:31.199Z,2.90
2017-12-12T23:41:58.661Z,2.90
2017-12-12T23:44:26.238Z,2.80
2017-12-12T23:46:53.918Z,2.80
2017-12-12T23:49:21.462Z,2.80
2017-12-12T23:51:48.949Z,2.80
2017-12-12T23:54:17.253Z,2.80
2017-12-12T23:56:44.834Z,2.80
2017-12-12T23:59:12.308Z,2.80
